ADDS METAR Data INFO
IDs: Format: Raw Decoded Include TAF

Data at: 2148 UTC 15 Dec 2017

METAR for:KGIF (Winter Haven/Gilbert, FL, US)
Text:KGIF 152053Z AUTO 28010KT 10SM CLR 23/14 A3007 RMK AO2 SLP179 T02330139 56004
Temperature: 23.3°C ( 74°F)
Dewpoint: 13.9°C ( 57°F) [RH = 56%]
Pressure (altimeter):30.07 inches Hg (1018.4 mb) [Sea level pressure: 1017.9 mb]
Winds:from the W (280 degrees) at 12 MPH (10 knots; 5.1 m/s)
Visibility:10 or more sm (16+ km)
Ceiling:at least 12,000 feet AGL
Clouds:sky clear below 12,000 feet AGL
QC Flag:automated observation with no human augmentation